DLH2LU LOWI-EDDF
Flight info
| Callsign | DLH2LU |
|---|---|
| Flight time | 0h 38m |
| Altitude | 32000 |
| Route | MOGTI Q163 HAFUN/N0403F240 Q163 ETASA T163 SPESA SPESA5B |
| Aircraft | A319/M-SDE3FGHIRWY/LB1 |
Departure
| Time | 2026-05-06 21:48 |
|---|---|
| Airport | Innsbruck Airport (LOWI) |
Arrival
| Time | 2026-05-06 22:26 |
|---|---|
| Airport | Frankfurt Main Airport (EDDF) |
| Time | Latitude | Longitude | Altitude | Speed | Heading |
|---|---|---|---|---|---|
| 2026-05-06 21:26 | 47.25826 | 11.35110 | 1908 ft | 0 kts | 172° |
| 2026-05-06 21:41 | 47.25833 | 11.35109 | 1880 ft | 4 kts | 172° |
| 2026-05-06 21:41 | 47.25860 | 11.35103 | 1901 ft | 3 kts | 171° |
| 2026-05-06 21:41 | 47.25878 | 11.35096 | 1893 ft | 4 kts | 115° |
| 2026-05-06 21:41 | 47.25880 | 11.35062 | 1900 ft | 4 kts | 81° |
| 2026-05-06 21:42 | 47.25878 | 11.35048 | 1894 ft | 0 kts | 81° |
| 2026-05-06 21:43 | 47.25879 | 11.35057 | 1899 ft | 3 kts | 81° |
| 2026-05-06 21:44 | 47.25884 | 11.35103 | 1904 ft | 6 kts | 81° |
| 2026-05-06 21:44 | 47.25893 | 11.35186 | 1904 ft | 10 kts | 81° |
| 2026-05-06 21:44 | 47.25921 | 11.35280 | 1899 ft | 10 kts | 4° |
| 2026-05-06 21:44 | 47.26001 | 11.35270 | 1905 ft | 13 kts | 352° |
| 2026-05-06 21:45 | 47.26098 | 11.35257 | 1905 ft | 14 kts | 22° |
| 2026-05-06 21:45 | 47.26127 | 11.35400 | 1900 ft | 16 kts | 82° |
| 2026-05-06 21:45 | 47.26134 | 11.35574 | 1897 ft | 17 kts | 119° |
| 2026-05-06 21:45 | 47.26126 | 11.35727 | 1894 ft | 16 kts | 41° |
| 2026-05-06 21:46 | 47.26156 | 11.35662 | 1902 ft | 0 kts | 263° |
| 2026-05-06 21:46 | 47.26156 | 11.35661 | 1902 ft | 0 kts | 258° |
| 2026-05-06 21:47 | 47.26124 | 11.35359 | 1904 ft | 71 kts | 261° |
| 2026-05-06 21:47 | 47.26005 | 11.34280 | 1907 ft | 139 kts | 261° |
| 2026-05-06 21:47 | 47.25858 | 11.32752 | 2405 ft | 151 kts | 261° |
| 2026-05-06 21:48 | 47.25704 | 11.31230 | 3116 ft | 150 kts | 261° |
| 2026-05-06 21:48 | 47.25538 | 11.29638 | 3528 ft | 167 kts | 261° |
| 2026-05-06 21:48 | 47.25354 | 11.27856 | 3832 ft | 189 kts | 262° |
| 2026-05-06 21:48 | 47.25516 | 11.25820 | 4026 ft | 215 kts | 292° |
| 2026-05-06 21:49 | 47.26147 | 11.23755 | 4612 ft | 225 kts | 294° |
| 2026-05-06 21:49 | 47.26774 | 11.21643 | 5641 ft | 224 kts | 292° |
| 2026-05-06 21:49 | 47.27391 | 11.19537 | 6864 ft | 229 kts | 292° |
| 2026-05-06 21:49 | 47.28026 | 11.17354 | 8009 ft | 234 kts | 291° |
| 2026-05-06 21:50 | 47.28671 | 11.15131 | 9087 ft | 238 kts | 290° |
| 2026-05-06 21:50 | 47.29332 | 11.12853 | 9916 ft | 248 kts | 290° |
| 2026-05-06 21:50 | 47.30030 | 11.10427 | 10349 ft | 272 kts | 289° |
| 2026-05-06 21:50 | 47.30478 | 11.07865 | 10714 ft | 292 kts | 273° |
| 2026-05-06 21:51 | 47.30446 | 11.04759 | 11083 ft | 315 kts | 264° |
| 2026-05-06 21:51 | 47.30311 | 11.01446 | 11641 ft | 328 kts | 264° |
| 2026-05-06 21:51 | 47.30177 | 10.98106 | 12513 ft | 332 kts | 264° |
| 2026-05-06 21:51 | 47.30041 | 10.94691 | 13470 ft | 334 kts | 264° |
| 2026-05-06 21:52 | 47.29907 | 10.91254 | 14310 ft | 337 kts | 264° |
| 2026-05-06 21:52 | 47.30027 | 10.87764 | 15004 ft | 346 kts | 277° |
| 2026-05-06 21:52 | 47.30733 | 10.84326 | 15733 ft | 357 kts | 290° |
| 2026-05-06 21:52 | 47.32015 | 10.81143 | 16433 ft | 367 kts | 304° |
| 2026-05-06 21:53 | 47.33796 | 10.78450 | 17145 ft | 376 kts | 315° |
| 2026-05-06 21:53 | 47.35759 | 10.75867 | 17921 ft | 381 kts | 315° |
| 2026-05-06 21:53 | 47.37784 | 10.73282 | 18604 ft | 388 kts | 319° |
| 2026-05-06 21:53 | 47.40083 | 10.71115 | 19252 ft | 396 kts | 329° |
| 2026-05-06 21:54 | 47.42606 | 10.69517 | 19873 ft | 402 kts | 336° |
| 2026-05-06 21:54 | 47.45237 | 10.67998 | 20551 ft | 406 kts | 335° |
| 2026-05-06 21:54 | 47.47881 | 10.66462 | 21185 ft | 411 kts | 335° |
| 2026-05-06 21:54 | 47.50555 | 10.64901 | 21824 ft | 415 kts | 335° |
| 2026-05-06 21:55 | 47.53260 | 10.63315 | 22437 ft | 420 kts | 335° |
| 2026-05-06 21:55 | 47.55961 | 10.61729 | 23009 ft | 424 kts | 335° |
| 2026-05-06 21:55 | 47.58726 | 10.60109 | 23569 ft | 429 kts | 335° |
| 2026-05-06 21:55 | 47.61518 | 10.58471 | 24059 ft | 433 kts | 335° |
| 2026-05-06 21:56 | 47.64299 | 10.56835 | 24537 ft | 436 kts | 335° |
| 2026-05-06 21:56 | 47.67140 | 10.55163 | 25026 ft | 439 kts | 334° |
| 2026-05-06 21:56 | 47.69998 | 10.53483 | 25502 ft | 442 kts | 334° |
| 2026-05-06 21:56 | 47.72876 | 10.51788 | 25984 ft | 445 kts | 334° |
| 2026-05-06 21:57 | 47.75391 | 10.50306 | 26388 ft | 448 kts | 334° |
| 2026-05-06 21:57 | 47.78265 | 10.48611 | 26837 ft | 451 kts | 333° |
| 2026-05-06 21:57 | 47.81198 | 10.46877 | 27325 ft | 454 kts | 333° |
| 2026-05-06 21:57 | 47.84140 | 10.45133 | 27786 ft | 457 kts | 333° |
| 2026-05-06 21:58 | 47.87114 | 10.43362 | 28242 ft | 460 kts | 333° |
| 2026-05-06 21:58 | 47.90059 | 10.41607 | 28684 ft | 463 kts | 332° |
| 2026-05-06 21:58 | 47.93070 | 10.39816 | 29124 ft | 466 kts | 332° |
| 2026-05-06 21:58 | 47.96093 | 10.38017 | 29551 ft | 469 kts | 332° |
| 2026-05-06 21:59 | 47.99135 | 10.36206 | 29953 ft | 472 kts | 332° |
| 2026-05-06 21:59 | 48.02203 | 10.34379 | 30289 ft | 475 kts | 332° |
| 2026-05-06 21:59 | 48.05241 | 10.32566 | 30629 ft | 477 kts | 332° |
| 2026-05-06 21:59 | 48.08334 | 10.30713 | 30962 ft | 479 kts | 333° |
| 2026-05-06 22:00 | 48.11442 | 10.28845 | 31299 ft | 482 kts | 333° |
| 2026-05-06 22:00 | 48.14525 | 10.26988 | 31712 ft | 481 kts | 333° |
| 2026-05-06 22:00 | 48.17634 | 10.25120 | 31891 ft | 480 kts | 333° |
| 2026-05-06 22:00 | 48.20597 | 10.23001 | 31922 ft | 463 kts | 324° |
| 2026-05-06 22:01 | 48.23235 | 10.20337 | 31920 ft | 452 kts | 316° |
| 2026-05-06 22:01 | 48.25673 | 10.17372 | 31922 ft | 450 kts | 315° |
| 2026-05-06 22:01 | 48.30511 | 10.11484 | 31922 ft | 449 kts | 315° |
| 2026-05-06 22:02 | 48.35394 | 10.05562 | 31920 ft | 450 kts | 315° |
| 2026-05-06 22:02 | 48.40239 | 9.99670 | 31922 ft | 451 kts | 315° |
| 2026-05-06 22:03 | 48.45122 | 9.93703 | 31915 ft | 451 kts | 316° |
| 2026-05-06 22:03 | 48.49960 | 9.87770 | 31906 ft | 451 kts | 316° |
| 2026-05-06 22:04 | 48.54816 | 9.81817 | 31898 ft | 451 kts | 316° |
| 2026-05-06 22:04 | 48.59688 | 9.75820 | 31896 ft | 451 kts | 316° |
| 2026-05-06 22:05 | 48.64458 | 9.69737 | 31890 ft | 450 kts | 314° |
| 2026-05-06 22:05 | 48.69153 | 9.63467 | 31888 ft | 450 kts | 314° |
| 2026-05-06 22:06 | 48.73820 | 9.57220 | 31893 ft | 450 kts | 314° |
| 2026-05-06 22:06 | 48.78542 | 9.50966 | 31890 ft | 450 kts | 315° |
| 2026-05-06 22:07 | 48.83231 | 9.44777 | 31895 ft | 449 kts | 315° |
| 2026-05-06 22:07 | 48.87943 | 9.38520 | 31896 ft | 448 kts | 315° |
| 2026-05-06 22:08 | 48.90290 | 9.35451 | 31634 ft | 454 kts | 318° |
| 2026-05-06 22:08 | 48.93017 | 9.32935 | 30837 ft | 461 kts | 335° |
| 2026-05-06 22:08 | 48.96110 | 9.31780 | 30486 ft | 458 kts | 354° |
| 2026-05-06 22:08 | 48.99316 | 9.31691 | 30483 ft | 459 kts | 359° |
| 2026-05-06 22:09 | 49.05675 | 9.31194 | 29519 ft | 460 kts | 352° |
| 2026-05-06 22:09 | 49.08902 | 9.30617 | 27742 ft | 471 kts | 352° |
| 2026-05-06 22:09 | 49.12083 | 9.29989 | 26794 ft | 462 kts | 351° |
| 2026-05-06 22:10 | 49.15246 | 9.29345 | 25852 ft | 454 kts | 351° |
| 2026-05-06 22:10 | 49.18360 | 9.28713 | 25065 ft | 448 kts | 352° |
| 2026-05-06 22:10 | 49.21437 | 9.28101 | 24418 ft | 441 kts | 352° |
| 2026-05-06 22:10 | 49.24423 | 9.27526 | 23787 ft | 435 kts | 352° |
| 2026-05-06 22:11 | 49.27418 | 9.26959 | 23150 ft | 430 kts | 352° |
| 2026-05-06 22:11 | 49.30385 | 9.26400 | 22546 ft | 424 kts | 352° |
| 2026-05-06 22:11 | 49.33296 | 9.25850 | 22018 ft | 419 kts | 352° |
| 2026-05-06 22:11 | 49.36143 | 9.25309 | 21485 ft | 415 kts | 352° |
| 2026-05-06 22:12 | 49.39005 | 9.24759 | 21002 ft | 412 kts | 352° |
| 2026-05-06 22:12 | 49.41847 | 9.24215 | 20500 ft | 409 kts | 352° |
| 2026-05-06 22:12 | 49.44625 | 9.23683 | 19987 ft | 405 kts | 352° |
| 2026-05-06 22:12 | 49.47417 | 9.23144 | 19454 ft | 402 kts | 352° |
| 2026-05-06 22:13 | 49.50193 | 9.22603 | 18918 ft | 399 kts | 352° |
| 2026-05-06 22:13 | 49.52946 | 9.22073 | 18375 ft | 397 kts | 352° |
| 2026-05-06 22:13 | 49.55649 | 9.21556 | 17792 ft | 395 kts | 352° |
| 2026-05-06 22:13 | 49.58371 | 9.21032 | 17228 ft | 392 kts | 352° |
| 2026-05-06 22:14 | 49.61070 | 9.20504 | 16674 ft | 388 kts | 352° |
| 2026-05-06 22:14 | 49.63737 | 9.19976 | 16124 ft | 385 kts | 352° |
| 2026-05-06 22:14 | 49.66383 | 9.19452 | 15593 ft | 381 kts | 352° |
| 2026-05-06 22:14 | 49.68966 | 9.18942 | 15072 ft | 377 kts | 352° |
| 2026-05-06 22:15 | 49.71568 | 9.18432 | 14557 ft | 373 kts | 352° |
| 2026-05-06 22:15 | 49.74133 | 9.17933 | 13978 ft | 371 kts | 352° |
| 2026-05-06 22:15 | 49.76702 | 9.17437 | 13290 ft | 370 kts | 352° |
| 2026-05-06 22:15 | 49.79220 | 9.16957 | 12633 ft | 365 kts | 352° |
| 2026-05-06 22:16 | 49.81720 | 9.16494 | 12003 ft | 357 kts | 352° |
| 2026-05-06 22:16 | 49.84166 | 9.16053 | 11365 ft | 349 kts | 352° |
| 2026-05-06 22:16 | 49.86560 | 9.15639 | 10738 ft | 343 kts | 352° |
| 2026-05-06 22:16 | 49.88913 | 9.15247 | 10129 ft | 337 kts | 352° |
| 2026-05-06 22:17 | 49.91202 | 9.14881 | 9512 ft | 331 kts | 352° |
| 2026-05-06 22:17 | 49.93491 | 9.14528 | 8858 ft | 327 kts | 352° |
| 2026-05-06 22:17 | 49.95669 | 9.14114 | 8570 ft | 310 kts | 346° |
| 2026-05-06 22:17 | 49.97731 | 9.13412 | 8310 ft | 295 kts | 344° |
| 2026-05-06 22:18 | 49.99718 | 9.12702 | 7819 ft | 290 kts | 344° |
| 2026-05-06 22:18 | 50.01676 | 9.11999 | 7316 ft | 287 kts | 344° |
| 2026-05-06 22:18 | 50.03588 | 9.11313 | 6829 ft | 283 kts | 344° |
| 2026-05-06 22:18 | 50.05499 | 9.10626 | 6393 ft | 279 kts | 344° |
| 2026-05-06 22:19 | 50.07385 | 9.09946 | 5927 ft | 276 kts | 344° |
| 2026-05-06 22:19 | 50.09181 | 9.09121 | 5473 ft | 269 kts | 330° |
| 2026-05-06 22:19 | 50.10560 | 9.07286 | 5056 ft | 260 kts | 301° |
| 2026-05-06 22:19 | 50.11248 | 9.04724 | 4981 ft | 257 kts | 285° |
| 2026-05-06 22:20 | 50.11756 | 9.02036 | 4987 ft | 259 kts | 284° |
| 2026-05-06 22:20 | 50.12234 | 8.99360 | 4990 ft | 259 kts | 283° |
| 2026-05-06 22:20 | 50.12602 | 8.96611 | 4986 ft | 258 kts | 271° |
| 2026-05-06 22:20 | 50.12329 | 8.93920 | 4989 ft | 243 kts | 253° |
| 2026-05-06 22:21 | 50.11781 | 8.91541 | 4990 ft | 223 kts | 249° |
| 2026-05-06 22:21 | 50.11263 | 8.89341 | 4877 ft | 212 kts | 249° |
| 2026-05-06 22:21 | 50.10746 | 8.87148 | 4363 ft | 218 kts | 250° |
| 2026-05-06 22:21 | 50.10231 | 8.84968 | 4004 ft | 212 kts | 250° |
| 2026-05-06 22:22 | 50.09739 | 8.82877 | 3697 ft | 199 kts | 250° |
| 2026-05-06 22:22 | 50.09276 | 8.80916 | 3481 ft | 188 kts | 250° |
| 2026-05-06 22:22 | 50.08834 | 8.79038 | 3205 ft | 183 kts | 250° |
| 2026-05-06 22:22 | 50.08403 | 8.77211 | 2965 ft | 181 kts | 250° |
| 2026-05-06 22:23 | 50.07967 | 8.75368 | 2720 ft | 181 kts | 251° |
| 2026-05-06 22:23 | 50.07534 | 8.73536 | 2474 ft | 180 kts | 250° |
| 2026-05-06 22:23 | 50.07101 | 8.71706 | 2231 ft | 179 kts | 251° |
| 2026-05-06 22:23 | 50.06677 | 8.69914 | 1986 ft | 178 kts | 251° |
| 2026-05-06 22:24 | 50.06269 | 8.68194 | 1774 ft | 156 kts | 251° |
| 2026-05-06 22:24 | 50.05916 | 8.66707 | 1547 ft | 137 kts | 251° |
| 2026-05-06 22:24 | 50.05606 | 8.65398 | 1360 ft | 126 kts | 251° |
| 2026-05-06 22:24 | 50.05307 | 8.64139 | 1173 ft | 122 kts | 251° |
| 2026-05-06 22:25 | 50.05013 | 8.62900 | 1005 ft | 121 kts | 251° |
| 2026-05-06 22:25 | 50.04720 | 8.61667 | 828 ft | 121 kts | 252° |
| 2026-05-06 22:25 | 50.04425 | 8.60435 | 660 ft | 122 kts | 252° |
| 2026-05-06 22:25 | 50.04139 | 8.59224 | 489 ft | 120 kts | 251° |
| 2026-05-06 22:26 | 50.03851 | 8.58010 | 369 ft | 114 kts | 250° |
| 2026-05-06 22:26 | 50.03622 | 8.57049 | 353 ft | 71 kts | 249° |
| 2026-05-06 22:26 | 50.03482 | 8.56463 | 354 ft | 39 kts | 250° |
| 2026-05-06 22:26 | 50.03433 | 8.56106 | 350 ft | 33 kts | 273° |
| 2026-05-06 22:27 | 50.03459 | 8.55849 | 345 ft | 11 kts | 280° |
| 2026-05-06 22:27 | 50.03460 | 8.55843 | 345 ft | 0 kts | 280° |
| 2026-05-06 22:27 | 50.03460 | 8.55840 | 345 ft | 1 kts | 280° |
| 2026-05-06 22:28 | 50.03465 | 8.55797 | 351 ft | 7 kts | 280° |
| 2026-05-06 22:28 | 50.03477 | 8.55697 | 345 ft | 12 kts | 280° |
| 2026-05-06 22:28 | 50.03492 | 8.55553 | 355 ft | 15 kts | 276° |
| 2026-05-06 22:28 | 50.03468 | 8.55373 | 347 ft | 20 kts | 249° |
| 2026-05-06 22:29 | 50.03416 | 8.55158 | 347 ft | 22 kts | 250° |
| 2026-05-06 22:29 | 50.03359 | 8.54921 | 349 ft | 24 kts | 250° |
| 2026-05-06 22:29 | 50.03298 | 8.54665 | 337 ft | 23 kts | 249° |
| 2026-05-06 22:29 | 50.03273 | 8.54541 | 337 ft | 11 kts | 275° |
| 2026-05-06 22:30 | 50.03329 | 8.54469 | 337 ft | 11 kts | 341° |
| 2026-05-06 22:30 | 50.03382 | 8.54439 | 337 ft | 0 kts | 340° |
| 2026-05-06 22:31 | 50.03383 | 8.54439 | 337 ft | 1 kts | 340° |
| 2026-05-06 22:31 | 50.03403 | 8.54428 | 338 ft | 5 kts | 340° |
| 2026-05-06 22:32 | 50.03440 | 8.54407 | 349 ft | 5 kts | 340° |
| 2026-05-06 22:32 | 50.03489 | 8.54378 | 344 ft | 10 kts | 340° |
| 2026-05-06 22:32 | 50.03578 | 8.54326 | 341 ft | 17 kts | 339° |
| 2026-05-06 22:32 | 50.03667 | 8.54356 | 349 ft | 14 kts | 56° |
| 2026-05-06 22:33 | 50.03704 | 8.54502 | 347 ft | 14 kts | 69° |
| 2026-05-06 22:33 | 50.03739 | 8.54643 | 349 ft | 14 kts | 71° |
| 2026-05-06 22:33 | 50.03772 | 8.54784 | 348 ft | 15 kts | 69° |
| 2026-05-06 22:33 | 50.03812 | 8.54944 | 352 ft | 16 kts | 70° |
| 2026-05-06 22:34 | 50.03852 | 8.55113 | 354 ft | 18 kts | 69° |
| 2026-05-06 22:34 | 50.03898 | 8.55308 | 355 ft | 21 kts | 69° |
| 2026-05-06 22:34 | 50.03954 | 8.55528 | 355 ft | 23 kts | 68° |
| 2026-05-06 22:34 | 50.04012 | 8.55777 | 356 ft | 25 kts | 78° |
| 2026-05-06 22:35 | 50.04081 | 8.55966 | 353 ft | 17 kts | 9° |
| 2026-05-06 22:35 | 50.04169 | 8.55904 | 354 ft | 13 kts | 7° |
| 2026-05-06 22:35 | 50.04259 | 8.55954 | 360 ft | 14 kts | 27° |
| 2026-05-06 22:35 | 50.04359 | 8.55917 | 356 ft | 16 kts | 339° |
| 2026-05-06 22:36 | 50.04471 | 8.55925 | 357 ft | 17 kts | 15° |
| 2026-05-06 22:36 | 50.04576 | 8.55982 | 361 ft | 14 kts | 2° |
| 2026-05-06 22:36 | 50.04634 | 8.55949 | 358 ft | 8 kts | 338° |
| 2026-05-06 22:36 | 50.04648 | 8.55941 | 362 ft | 1 kts | 340° |